createdAt,value
2022-11-17T00:00:02.687Z,0
2022-11-17T00:01:02.876Z,0
2022-11-17T00:02:02.972Z,0
2022-11-17T00:03:03.554Z,0
2022-11-17T00:04:04.443Z,0
2022-11-17T00:05:04.861Z,0
2022-11-17T00:06:05.485Z,0
2022-11-17T00:07:06.220Z,0
2022-11-17T00:08:06.460Z,0
2022-11-17T00:09:07.352Z,0
2022-11-17T00:10:07.556Z,0
2022-11-17T00:11:07.739Z,0
2022-11-17T00:12:08.670Z,0
2022-11-17T00:13:08.706Z,0
2022-11-17T00:14:10.211Z,0
2022-11-17T00:15:10.798Z,0
2022-11-17T00:16:10.403Z,0
2022-11-17T00:17:11.072Z,0
2022-11-17T00:18:10.967Z,0
2022-11-17T00:19:11.887Z,0
2022-11-17T00:20:13.088Z,0
2022-11-17T00:21:13.972Z,0
2022-11-17T00:22:14.341Z,0
2022-11-17T00:23:15.227Z,0
2022-11-17T00:24:16.130Z,0
2022-11-17T00:25:17.109Z,0
2022-11-17T00:26:18.015Z,0
2022-11-17T00:27:18.633Z,0
2022-11-17T00:28:19.115Z,0
2022-11-17T00:29:19.379Z,0
2022-11-17T00:30:20.124Z,0
2022-11-17T00:31:21.317Z,0
2022-11-17T00:32:21.444Z,0
2022-11-17T00:33:21.342Z,0
2022-11-17T00:34:22.533Z,0
2022-11-17T00:35:22.837Z,0
2022-11-17T00:36:23.052Z,0
2022-11-17T00:37:23.945Z,0
2022-11-17T00:38:24.137Z,0
2022-11-17T00:39:24.358Z,0
2022-11-17T00:40:24.537Z,0
2022-11-17T00:41:25.732Z,0
2022-11-17T00:42:25.371Z,0
2022-11-17T00:43:26.281Z,0
2022-11-17T00:44:27.325Z,0
2022-11-17T00:45:28.057Z,0
2022-11-17T00:46:28.677Z,0
2022-11-17T00:47:29.731Z,0
2022-11-17T00:48:29.353Z,0
2022-11-17T00:49:30.540Z,0
2022-11-17T00:50:30.731Z,0
2022-11-17T00:51:31.348Z,0
2022-11-17T00:52:31.664Z,0
2022-11-17T00:53:32.802Z,0
2022-11-17T00:54:33.938Z,0
2022-11-17T00:55:33.746Z,0
2022-11-17T00:56:34.721Z,0
2022-11-17T00:57:35.355Z,0
2022-11-17T00:58:36.247Z,0
2022-11-17T00:59:36.696Z,0
2022-11-17T01:00:37.657Z,0
2022-11-17T01:01:38.115Z,0
2022-11-17T01:02:38.676Z,0
2022-11-17T01:03:39.931Z,0
2022-11-17T01:04:39.411Z,0
2022-11-17T01:05:44.362Z,0
2022-11-17T01:06:40.550Z,0
2022-11-17T01:07:41.360Z,0
2022-11-17T01:08:41.573Z,0
2022-11-17T01:09:42.491Z,0
2022-11-17T01:10:42.383Z,0
2022-11-17T01:11:43.568Z,0
2022-11-17T01:12:43.772Z,0
2022-11-17T01:13:44.323Z,0
2022-11-17T01:14:44.001Z,0
2022-11-17T01:15:45.006Z,0
2022-11-17T01:16:45.210Z,0
2022-11-17T01:17:46.072Z,0
2022-11-17T01:18:46.258Z,0
2022-11-17T01:19:47.155Z,0
2022-11-17T01:20:47.788Z,0
2022-11-17T01:21:48.703Z,0
2022-11-17T01:22:48.941Z,0
2022-11-17T01:23:49.150Z,0
2022-11-17T01:24:50.062Z,0
2022-11-17T01:25:50.327Z,0
2022-11-17T01:26:51.514Z,0
2022-11-17T01:27:51.996Z,0
2022-11-17T01:28:52.943Z,0
2022-11-17T01:29:53.559Z,0
2022-11-17T01:30:54.157Z,0
2022-11-17T01:31:54.109Z,0
2022-11-17T01:32:55.056Z,0
2022-11-17T01:33:56.253Z,0
2022-11-17T01:34:57.447Z,0
2022-11-17T01:35:57.583Z,0
2022-11-17T01:36:57.777Z,0
2022-11-17T01:37:58.685Z,0
2022-11-17T01:38:59.881Z,0
2022-11-17T01:39:59.791Z,0
2022-11-17T01:41:00.130Z,0
2022-11-17T01:42:01.342Z,0
2022-11-17T01:43:01.253Z,0
2022-11-17T01:44:02.166Z,0
2022-11-17T01:45:02.384Z,0
2022-11-17T01:46:03.472Z,0
2022-11-17T01:47:12.041Z,0
2022-11-17T01:48:05.092Z,0
2022-11-17T01:49:05.122Z,0
2022-11-17T01:50:06.026Z,0
2022-11-17T01:51:06.767Z,0
2022-11-17T01:52:07.106Z,0
2022-11-17T01:53:08.010Z,0
2022-11-17T01:54:08.935Z,0
2022-11-17T01:55:09.837Z,0
2022-11-17T01:56:10.293Z,0
2022-11-17T01:57:10.201Z,0
2022-11-17T01:58:10.817Z,0
2022-11-17T01:59:11.304Z,0
2022-11-17T02:00:11.523Z,0
2022-11-17T02:01:12.798Z,0
2022-11-17T02:02:12.656Z,0
2022-11-17T02:03:14.370Z,0
2022-11-17T02:04:14.553Z,0
2022-11-17T02:05:15.759Z,0
2022-11-17T02:06:16.187Z,0
2022-11-17T02:07:16.748Z,0
2022-11-17T02:08:17.827Z,0
2022-11-17T02:09:18.311Z,0
2022-11-17T02:10:18.526Z,0
2022-11-17T02:11:18.463Z,0
2022-11-17T02:12:19.369Z,0
2022-11-17T02:13:20.276Z,0
2022-11-17T02:14:21.180Z,0
2022-11-17T02:15:22.380Z,0
2022-11-17T02:16:22.690Z,0
2022-11-17T02:17:25.444Z,0
2022-11-17T02:18:24.858Z,0
2022-11-17T02:19:24.749Z,0
2022-11-17T02:20:25.960Z,0
2022-11-17T02:21:26.157Z,0
2022-11-17T02:22:27.068Z,0
2022-11-17T02:23:27.559Z,0
2022-11-17T02:24:28.582Z,0
2022-11-17T02:25:32.913Z,0
2022-11-17T02:26:29.591Z,0
2022-11-17T02:27:29.805Z,0
2022-11-17T02:28:30.696Z,0
2022-11-17T02:29:31.593Z,0
2022-11-17T02:30:31.603Z,0
2022-11-17T02:31:32.818Z,0
2022-11-17T02:32:32.739Z,0
2022-11-17T02:33:34.094Z,0
2022-11-17T02:34:33.286Z,0
2022-11-17T02:35:33.902Z,0
2022-11-17T02:36:34.680Z,0
2022-11-17T02:37:34.886Z,0
2022-11-17T02:38:35.500Z,0
2022-11-17T02:39:36.113Z,0
2022-11-17T02:40:37.022Z,0
2022-11-17T02:41:38.213Z,0
2022-11-17T02:42:38.126Z,0
2022-11-17T02:43:40.128Z,0
2022-11-17T02:44:39.612Z,0
2022-11-17T02:45:39.928Z,0
2022-11-17T02:46:39.940Z,0
2022-11-17T02:47:40.848Z,0
2022-11-17T02:48:42.288Z,0
2022-11-17T02:49:42.281Z,0
2022-11-17T02:50:42.915Z,0
2022-11-17T02:51:43.809Z,0
2022-11-17T02:52:44.432Z,0
2022-11-17T02:53:45.556Z,0
2022-11-17T02:54:45.460Z,0
2022-11-17T02:55:46.094Z,0
2022-11-17T02:56:46.778Z,0
2022-11-17T02:57:46.711Z,0
2022-11-17T02:58:47.598Z,0
2022-11-17T02:59:47.931Z,0
2022-11-17T03:00:49.522Z,0
2022-11-17T03:01:50.497Z,0
2022-11-17T03:02:50.018Z,0
2022-11-17T03:03:51.434Z,0
2022-11-17T03:04:51.144Z,0
2022-11-17T03:05:52.046Z,0
2022-11-17T03:06:52.780Z,0
2022-11-17T03:07:52.859Z,0
2022-11-17T03:08:53.063Z,0
2022-11-17T03:09:53.262Z,0
2022-11-17T03:10:53.452Z,0
2022-11-17T03:11:54.092Z,0
2022-11-17T03:12:55.297Z,0
2022-11-17T03:13:56.206Z,0
2022-11-17T03:14:56.220Z,0
2022-11-17T03:15:57.419Z,0
2022-11-17T03:16:57.447Z,0
2022-11-17T03:17:57.935Z,0
2022-11-17T03:18:58.353Z,0
2022-11-17T03:19:58.935Z,0
2022-11-17T03:20:58.849Z,0
2022-11-17T03:21:59.078Z,0
2022-11-17T03:22:59.991Z,0
2022-11-17T03:24:00.935Z,0
2022-11-17T03:25:01.632Z,0
2022-11-17T03:26:02.553Z,0
2022-11-17T03:27:02.941Z,0
2022-11-17T03:28:04.436Z,0
2022-11-17T03:29:04.326Z,0
2022-11-17T03:30:04.237Z,0
2022-11-17T03:31:05.626Z,0
2022-11-17T03:32:06.560Z,0
2022-11-17T03:33:06.447Z,0
2022-11-17T03:34:07.305Z,0
2022-11-17T03:35:07.350Z,0
2022-11-17T03:36:08.547Z,0
2022-11-17T03:37:08.680Z,0
2022-11-17T03:38:09.315Z,0
2022-11-17T03:39:10.226Z,0
2022-11-17T03:40:11.149Z,0
2022-11-17T03:41:11.485Z,0
2022-11-17T03:42:12.104Z,0
2022-11-17T03:43:13.040Z,0
2022-11-17T03:44:13.349Z,0
2022-11-17T03:45:14.561Z,0
2022-11-17T03:46:14.581Z,0
2022-11-17T03:47:15.572Z,0
2022-11-17T03:48:16.055Z,0
2022-11-17T03:49:16.135Z,0
2022-11-17T03:50:16.720Z,0
2022-11-17T03:51:16.331Z,0
2022-11-17T03:52:17.225Z,0
2022-11-17T03:53:17.539Z,0
2022-11-17T03:54:18.446Z,0
2022-11-17T03:55:18.786Z,0
2022-11-17T03:56:19.976Z,0
2022-11-17T03:57:20.084Z,0
2022-11-17T03:58:21.270Z,0
2022-11-17T03:59:21.608Z,0
2022-11-17T04:00:22.798Z,0
2022-11-17T04:01:23.697Z,0
2022-11-17T04:02:23.813Z,0
2022-11-17T04:03:24.997Z,0
2022-11-17T04:04:26.049Z,0
2022-11-17T04:05:25.974Z,0
2022-11-17T04:06:26.308Z,0
2022-11-17T04:07:27.176Z,0
2022-11-17T04:08:27.831Z,0
2022-11-17T04:09:33.776Z,0
2022-11-17T04:10:28.386Z,0
2022-11-17T04:11:28.575Z,0
2022-11-17T04:12:29.465Z,0
2022-11-17T04:13:29.651Z,0
2022-11-17T04:14:30.411Z,0
2022-11-17T04:15:30.778Z,0
2022-11-17T04:16:30.614Z,0
2022-11-17T04:17:31.624Z,0
2022-11-17T04:18:32.310Z,0
2022-11-17T04:19:33.269Z,0
2022-11-17T04:20:33.553Z,0
2022-11-17T04:21:34.188Z,0
2022-11-17T04:22:35.099Z,0
2022-11-17T04:23:35.303Z,0
2022-11-17T04:24:34.863Z,0
2022-11-17T04:25:36.412Z,0
2022-11-17T04:26:36.049Z,0
2022-11-17T04:27:36.795Z,0
2022-11-17T04:28:38.027Z,0
2022-11-17T04:29:39.251Z,0
2022-11-17T04:30:39.170Z,0
2022-11-17T04:31:40.817Z,0
2022-11-17T04:32:41.135Z,0
2022-11-17T04:33:41.531Z,0
2022-11-17T04:34:41.302Z,0
2022-11-17T04:35:41.882Z,0
2022-11-17T04:36:41.823Z,0
2022-11-17T04:37:42.334Z,0
2022-11-17T04:38:42.951Z,0
2022-11-17T04:39:43.882Z,0
2022-11-17T04:40:43.771Z,0
2022-11-17T04:41:44.088Z,0
2022-11-17T04:42:44.425Z,0
2022-11-17T04:43:45.874Z,0
2022-11-17T04:44:45.784Z,0
2022-11-17T04:45:45.994Z,0
2022-11-17T04:46:47.032Z,0
2022-11-17T04:47:47.709Z,0
2022-11-17T04:48:47.631Z,0
2022-11-17T04:49:47.932Z,0
2022-11-17T04:50:48.142Z,0
2022-11-17T04:51:48.622Z,0
2022-11-17T04:52:48.533Z,0
2022-11-17T04:53:49.398Z,0
2022-11-17T04:54:49.593Z,0
2022-11-17T04:55:49.487Z,0
2022-11-17T04:56:50.392Z,0
2022-11-17T04:57:50.708Z,0
2022-11-17T04:58:51.621Z,0
2022-11-17T04:59:52.261Z,0
2022-11-17T05:00:52.761Z,0
2022-11-17T05:01:52.917Z,0
2022-11-17T05:02:53.208Z,0
2022-11-17T05:03:54.406Z,0
2022-11-17T05:04:54.753Z,0
2022-11-17T05:05:56.054Z,0
2022-11-17T05:06:55.192Z,0
2022-11-17T05:07:55.510Z,0
2022-11-17T05:08:56.725Z,0
2022-11-17T05:09:57.212Z,0
2022-11-17T05:10:57.809Z,0
2022-11-17T05:11:58.175Z,0
2022-11-17T05:12:58.800Z,0
2022-11-17T05:13:59.720Z,0
2022-11-17T05:15:00.160Z,0
2022-11-17T05:16:00.601Z,0
2022-11-17T05:17:07.487Z,0
2022-11-17T05:18:01.900Z,0
2022-11-17T05:19:02.100Z,0
2022-11-17T05:20:02.814Z,0
2022-11-17T05:21:03.118Z,0
2022-11-17T05:22:03.440Z,0
2022-11-17T05:23:12.575Z,0
2022-11-17T05:24:05.215Z,0
2022-11-17T05:25:05.850Z,0
2022-11-17T05:26:06.753Z,0
2022-11-17T05:27:07.962Z,0
2022-11-17T05:28:08.667Z,0
2022-11-17T05:29:09.579Z,0
2022-11-17T05:30:09.922Z,0
2022-11-17T05:31:11.142Z,0
2022-11-17T05:32:11.142Z,0
2022-11-17T05:33:11.739Z,0
2022-11-17T05:34:11.954Z,0
2022-11-17T05:35:12.448Z,0
2022-11-17T05:36:12.739Z,0
2022-11-17T05:37:13.664Z,0
2022-11-17T05:38:14.526Z,0
2022-11-17T05:39:15.460Z,0
2022-11-17T05:40:15.940Z,0
2022-11-17T05:41:16.277Z,0
2022-11-17T05:42:17.172Z,0
2022-11-17T05:43:17.067Z,0
2022-11-17T05:44:18.257Z,0
2022-11-17T05:45:18.741Z,0
2022-11-17T05:46:18.928Z,0
2022-11-17T05:47:19.256Z,0
2022-11-17T05:48:19.831Z,0
2022-11-17T05:49:20.039Z,0
2022-11-17T05:50:20.756Z,0
2022-11-17T05:51:20.650Z,0
2022-11-17T05:52:21.263Z,0
2022-11-17T05:53:22.470Z,0
2022-11-17T05:54:22.955Z,0
2022-11-17T05:55:23.143Z,0
2022-11-17T05:56:23.480Z,0
2022-11-17T05:57:24.685Z,0
2022-11-17T05:58:25.105Z,0
2022-11-17T05:59:33.602Z,0
2022-11-17T06:00:25.533Z,0
2022-11-17T06:01:26.463Z,0
2022-11-17T06:02:26.765Z,0
2022-11-17T06:03:27.498Z,0
2022-11-17T06:04:28.286Z,0
2022-11-17T06:05:32.114Z,4
2022-11-17T06:06:29.405Z,4
2022-11-17T06:07:30.770Z,0
2022-11-17T06:08:30.506Z,0
2022-11-17T06:09:31.689Z,0
2022-11-17T06:10:31.897Z,0
2022-11-17T06:11:32.391Z,0
2022-11-17T06:12:32.596Z,4
2022-11-17T06:13:33.841Z,4
2022-11-17T06:14:33.917Z,4
2022-11-17T06:15:35.129Z,4
2022-11-17T06:16:35.022Z,4
2022-11-17T06:17:35.530Z,4
2022-11-17T06:18:35.643Z,4
2022-11-17T06:19:36.257Z,4
2022-11-17T06:20:37.419Z,8
2022-11-17T06:22:17.566Z,4
2022-11-17T06:22:39.590Z,8
2022-11-17T06:23:39.918Z,8
2022-11-17T06:24:40.010Z,8
2022-11-17T06:25:40.355Z,12
2022-11-17T06:26:41.670Z,12
2022-11-17T06:27:41.688Z,16
2022-11-17T06:28:41.988Z,16
2022-11-17T06:29:50.365Z,16
2022-11-17T06:30:43.573Z,12
2022-11-17T06:31:43.477Z,12
2022-11-17T06:32:44.509Z,12
2022-11-17T06:33:45.706Z,12
2022-11-17T06:34:48.005Z,16
2022-11-17T06:35:46.556Z,16
2022-11-17T06:36:46.772Z,24
2022-11-17T06:37:47.389Z,32
2022-11-17T06:38:47.513Z,40
2022-11-17T06:39:48.708Z,52
2022-11-17T06:40:48.912Z,56
2022-11-17T06:41:49.598Z,64
2022-11-17T06:42:50.518Z,60
2022-11-17T06:43:51.429Z,60
2022-11-17T06:44:51.743Z,64
2022-11-17T06:45:53.059Z,60
2022-11-17T06:46:59.804Z,64
2022-11-17T06:47:53.832Z,60
2022-11-17T06:48:54.257Z,52
2022-11-17T06:49:54.590Z,48
2022-11-17T06:50:55.659Z,48
2022-11-17T06:51:57.068Z,52
2022-11-17T06:52:56.984Z,48
2022-11-17T06:53:57.484Z,48
2022-11-17T06:54:57.687Z,60
2022-11-17T06:55:58.578Z,72
2022-11-17T06:56:59.196Z,80
2022-11-17T06:58:05.004Z,68
2022-11-17T06:59:01.768Z,56
2022-11-17T07:00:01.656Z,44
2022-11-17T07:01:02.264Z,44
2022-11-17T07:02:03.220Z,40
2022-11-17T07:03:03.422Z,40
2022-11-17T07:04:04.037Z,40
2022-11-17T07:05:04.231Z,36
2022-11-17T07:06:04.537Z,40
2022-11-17T07:07:04.535Z,40
2022-11-17T07:08:08.074Z,44
2022-11-17T07:09:05.678Z,44
2022-11-17T07:10:06.311Z,48
2022-11-17T07:11:07.229Z,52
2022-11-17T07:12:07.857Z,56
2022-11-17T07:13:08.756Z,68
2022-11-17T07:14:09.675Z,84
2022-11-17T07:15:10.876Z,100
2022-11-17T07:16:11.353Z,108
2022-11-17T07:17:12.090Z,104
2022-11-17T07:18:12.416Z,108
2022-11-17T07:19:12.949Z,108
2022-11-17T07:20:12.874Z,112
2022-11-17T07:21:14.222Z,128
2022-11-17T07:22:14.438Z,132
2022-11-17T07:23:15.408Z,124
2022-11-17T07:24:16.331Z,120
2022-11-17T07:25:21.167Z,116
2022-11-17T07:26:16.861Z,140
2022-11-17T07:27:18.051Z,152
2022-11-17T07:28:17.971Z,164
2022-11-17T07:29:18.962Z,196
2022-11-17T07:30:19.589Z,212
2022-11-17T07:31:20.519Z,248
2022-11-17T07:32:21.415Z,264
2022-11-17T07:33:22.022Z,324
2022-11-17T07:34:22.039Z,332
2022-11-17T07:35:22.264Z,348
2022-11-17T07:36:23.053Z,364
2022-11-17T07:37:23.361Z,404
2022-11-17T07:38:24.269Z,416
2022-11-17T07:39:32.149Z,440
2022-11-17T07:40:25.345Z,416
2022-11-17T07:41:25.563Z,384
2022-11-17T07:42:25.473Z,316
2022-11-17T07:43:26.392Z,244
2022-11-17T07:44:27.313Z,212
2022-11-17T07:45:31.707Z,208
2022-11-17T07:46:28.034Z,208
2022-11-17T07:47:29.254Z,236
2022-11-17T07:48:29.572Z,316
2022-11-17T07:49:29.841Z,392
2022-11-17T07:50:29.471Z,440
2022-11-17T07:51:30.708Z,508
2022-11-17T07:52:30.949Z,540
2022-11-17T07:53:31.189Z,500
2022-11-17T07:54:32.113Z,444
2022-11-17T07:55:32.323Z,404
2022-11-17T07:56:33.554Z,372
2022-11-17T07:57:33.450Z,364
2022-11-17T07:58:34.750Z,412
2022-11-17T07:59:34.530Z,460
2022-11-17T08:00:35.198Z,448
2022-11-17T08:01:35.863Z,412
2022-11-17T08:02:35.775Z,384
2022-11-17T08:03:37.067Z,400
2022-11-17T08:04:37.151Z,408
2022-11-17T08:05:41.958Z,392
2022-11-17T08:06:39.071Z,396
2022-11-17T08:07:39.599Z,448
2022-11-17T08:08:41.218Z,504
2022-11-17T08:09:40.564Z,532
2022-11-17T08:10:41.768Z,496
2022-11-17T08:11:41.956Z,508
2022-11-17T08:12:42.157Z,496
2022-11-17T08:13:43.096Z,488
2022-11-17T08:14:43.759Z,464
2022-11-17T08:15:45.714Z,472
2022-11-17T08:16:45.519Z,500
2022-11-17T08:17:46.295Z,544
2022-11-17T08:18:52.589Z,588
2022-11-17T08:19:47.346Z,612
2022-11-17T08:20:48.045Z,640
2022-11-17T08:21:49.395Z,624
2022-11-17T08:22:49.728Z,560
2022-11-17T08:23:50.845Z,532
2022-11-17T08:24:50.534Z,524
2022-11-17T08:25:51.125Z,536
2022-11-17T08:26:52.144Z,572
2022-11-17T08:27:52.106Z,620
2022-11-17T08:28:58.041Z,644
2022-11-17T08:29:53.462Z,672
2022-11-17T08:30:53.135Z,700
2022-11-17T08:31:54.362Z,716
2022-11-17T08:32:54.638Z,772
2022-11-17T08:33:54.729Z,876
2022-11-17T08:34:55.468Z,948
2022-11-17T08:35:55.718Z,1020
2022-11-17T08:36:56.153Z,1168
2022-11-17T08:37:57.115Z,1312
2022-11-17T08:38:57.427Z,1372
2022-11-17T08:39:57.590Z,1384
2022-11-17T08:40:58.102Z,1360
2022-11-17T08:41:58.604Z,1376
2022-11-17T08:43:07.103Z,1476
2022-11-17T08:43:59.093Z,1296
2022-11-17T08:44:59.490Z,1216
2022-11-17T08:46:00.400Z,1192
2022-11-17T08:47:01.150Z,1240
2022-11-17T08:48:02.097Z,1260
2022-11-17T08:49:08.226Z,1276
2022-11-17T08:50:02.946Z,1336
2022-11-17T08:51:03.575Z,1616
2022-11-17T08:52:04.703Z,2660
2022-11-17T08:53:05.295Z,2344
2022-11-17T08:54:05.241Z,1524
2022-11-17T08:55:06.648Z,1508
2022-11-17T08:56:07.042Z,1536
2022-11-17T08:57:07.906Z,1656
2022-11-17T08:58:08.342Z,1652
2022-11-17T08:59:09.269Z,1532
2022-11-17T09:00:09.776Z,1568
2022-11-17T09:01:16.204Z,2532
2022-11-17T09:02:11.589Z,2040
2022-11-17T09:03:11.511Z,2304
2022-11-17T09:04:13.124Z,1796
2022-11-17T09:05:13.089Z,1736
2022-11-17T09:06:13.724Z,1656
2022-11-17T09:07:15.428Z,1592
2022-11-17T09:08:53.137Z,1460
2022-11-17T09:09:15.964Z,1464
2022-11-17T09:10:15.468Z,1512
2022-11-17T09:11:15.864Z,1508
2022-11-17T09:12:15.777Z,1476
2022-11-17T09:13:24.076Z,1620
2022-11-17T09:14:17.007Z,4624
2022-11-17T09:15:18.273Z,1576
2022-11-17T09:16:18.930Z,2148
2022-11-17T09:17:19.913Z,1788
2022-11-17T09:18:20.415Z,1748
2022-11-17T09:19:20.755Z,3332
2022-11-17T09:20:21.390Z,1640
2022-11-17T09:21:22.628Z,1680
2022-11-17T09:22:23.037Z,2404
2022-11-17T09:23:23.547Z,2124
2022-11-17T09:24:24.305Z,1972
2022-11-17T09:25:24.999Z,2564
2022-11-17T09:26:25.540Z,2084
2022-11-17T09:27:25.775Z,4252
2022-11-17T09:28:26.268Z,4624
2022-11-17T09:29:26.597Z,1728
2022-11-17T09:30:27.663Z,3760
2022-11-17T09:31:28.117Z,2172
2022-11-17T09:32:28.969Z,1896
2022-11-17T09:33:29.044Z,1836
2022-11-17T09:34:30.351Z,5020
2022-11-17T09:35:30.796Z,2032
2022-11-17T09:36:31.805Z,1832
2022-11-17T09:37:32.173Z,2784
2022-11-17T09:38:32.067Z,2412
2022-11-17T09:39:32.958Z,2240
2022-11-17T09:40:38.624Z,5096
2022-11-17T09:41:33.383Z,2064
2022-11-17T09:42:34.609Z,2324
2022-11-17T09:43:34.833Z,7256
2022-11-17T09:44:35.767Z,6028
2022-11-17T09:45:35.393Z,6300
2022-11-17T09:46:36.912Z,4668
2022-11-17T09:47:36.874Z,1980
2022-11-17T09:48:52.841Z,1784
2022-11-17T09:49:39.275Z,1772
2022-11-17T09:50:39.971Z,1676
2022-11-17T09:51:39.874Z,1592
2022-11-17T09:52:41.328Z,1656
2022-11-17T09:53:42.771Z,1632
2022-11-17T09:54:42.302Z,4672
2022-11-17T09:55:46.005Z,1740
2022-11-17T09:56:44.059Z,2420
2022-11-17T09:57:44.895Z,1836
2022-11-17T09:58:45.936Z,1948
2022-11-17T09:59:44.839Z,1988
2022-11-17T10:00:45.091Z,2336
2022-11-17T10:01:46.254Z,2860
2022-11-17T10:02:46.590Z,4260
2022-11-17T10:03:55.843Z,1736
2022-11-17T10:04:47.878Z,2036
2022-11-17T10:05:48.521Z,2568
2022-11-17T10:06:49.567Z,2620
2022-11-17T10:07:49.771Z,3196
2022-11-17T10:08:49.694Z,8964
2022-11-17T10:09:50.683Z,3728
2022-11-17T10:10:51.804Z,2652
2022-11-17T10:11:52.759Z,2588
2022-11-17T10:12:53.095Z,2796
2022-11-17T10:13:54.081Z,2636
2022-11-17T10:14:55.095Z,2540
2022-11-17T10:15:55.603Z,8744
2022-11-17T10:16:56.562Z,6384
2022-11-17T10:17:57.359Z,7240
2022-11-17T10:18:58.054Z,9052
2022-11-17T10:19:57.816Z,8660
2022-11-17T10:20:59.052Z,4416
2022-11-17T10:21:59.728Z,10716
2022-11-17T10:23:00.928Z,7760
2022-11-17T10:24:01.675Z,3228
2022-11-17T10:25:01.607Z,3412
2022-11-17T10:26:02.530Z,4332
2022-11-17T10:27:03.171Z,2388
2022-11-17T10:28:04.093Z,2276
2022-11-17T10:29:14.019Z,2196
2022-11-17T10:30:05.651Z,2916
2022-11-17T10:31:06.216Z,1928
2022-11-17T10:32:06.848Z,1552
2022-11-17T10:33:07.371Z,1400
2022-11-17T10:34:07.771Z,1356
2022-11-17T10:35:07.885Z,1332
2022-11-17T10:36:08.649Z,1340
2022-11-17T10:37:08.777Z,1424
2022-11-17T10:38:10.563Z,1380
2022-11-17T10:39:17.671Z,1196
2022-11-17T10:40:11.518Z,1208
2022-11-17T10:41:12.773Z,1280
2022-11-17T10:42:12.988Z,1300
2022-11-17T10:43:13.494Z,1024
2022-11-17T10:44:13.107Z,936
2022-11-17T10:45:14.042Z,1084
2022-11-17T10:46:14.287Z,1212
2022-11-17T10:47:13.943Z,984
2022-11-17T10:48:14.074Z,776
2022-11-17T10:49:15.000Z,804
2022-11-17T10:50:16.088Z,932
2022-11-17T10:51:16.685Z,1080
2022-11-17T10:52:16.623Z,972
2022-11-17T10:53:24.156Z,816
2022-11-17T10:54:18.390Z,836
2022-11-17T10:55:19.019Z,868
2022-11-17T10:56:20.022Z,848
2022-11-17T10:57:20.236Z,772
2022-11-17T10:58:20.740Z,788
2022-11-17T10:59:20.659Z,792
2022-11-17T11:00:21.867Z,704
2022-11-17T11:01:27.386Z,716
2022-11-17T11:02:22.455Z,724
2022-11-17T11:03:22.675Z,708
2022-11-17T11:04:23.201Z,652
2022-11-17T11:05:23.718Z,580
2022-11-17T11:06:28.698Z,612
2022-11-17T11:07:24.934Z,720
2022-11-17T11:08:24.937Z,864
2022-11-17T11:09:26.729Z,1028
2022-11-17T11:10:26.984Z,1004
2022-11-17T11:11:30.916Z,776
2022-11-17T11:12:29.075Z,652
2022-11-17T11:13:29.298Z,600
2022-11-17T11:14:29.495Z,600
2022-11-17T11:15:29.693Z,616
2022-11-17T11:16:30.325Z,644
2022-11-17T11:17:31.826Z,672
2022-11-17T11:18:32.100Z,692
2022-11-17T11:19:33.114Z,708
2022-11-17T11:20:34.014Z,708
2022-11-17T11:21:34.700Z,656
2022-11-17T11:22:35.204Z,564
2022-11-17T11:23:35.694Z,456
2022-11-17T11:24:36.004Z,388
2022-11-17T11:25:36.511Z,408
2022-11-17T11:26:36.424Z,476
2022-11-17T11:27:37.045Z,564
2022-11-17T11:28:41.237Z,648
2022-11-17T11:29:38.746Z,684
2022-11-17T11:30:38.993Z,688
2022-11-17T11:31:40.075Z,780
2022-11-17T11:32:39.779Z,916
2022-11-17T11:33:40.698Z,1200
2022-11-17T11:34:41.640Z,1264
2022-11-17T11:35:41.873Z,1388
2022-11-17T11:36:42.382Z,1524
2022-11-17T11:37:42.686Z,1640
2022-11-17T11:38:43.060Z,1808
2022-11-17T11:39:44.362Z,2192
2022-11-17T11:40:44.863Z,1948
2022-11-17T11:41:44.925Z,2028
2022-11-17T11:42:45.125Z,2176
2022-11-17T11:43:45.624Z,2352
2022-11-17T11:44:45.547Z,2436
2022-11-17T11:45:46.191Z,2192
2022-11-17T11:46:47.392Z,2028
2022-11-17T11:47:48.034Z,1864
2022-11-17T11:48:49.258Z,1452
2022-11-17T11:49:49.753Z,1520
2022-11-17T11:50:53.086Z,1496
2022-11-17T11:51:51.683Z,2028
2022-11-17T11:52:51.907Z,1224
2022-11-17T11:53:52.985Z,1156
2022-11-17T11:54:58.922Z,1460
2022-11-17T11:55:54.184Z,3720
2022-11-17T11:56:54.646Z,2372
2022-11-17T11:57:55.624Z,1432
2022-11-17T11:58:55.862Z,1248
2022-11-17T12:00:00.965Z,2276
2022-11-17T12:00:56.468Z,4224
2022-11-17T12:01:56.820Z,1776
2022-11-17T12:02:57.596Z,3556
2022-11-17T12:03:57.933Z,3544
2022-11-17T12:04:57.880Z,1560
2022-11-17T12:05:58.586Z,1580
2022-11-17T12:07:00.333Z,1296
2022-11-17T12:07:59.391Z,1016
2022-11-17T12:08:59.856Z,948
2022-11-17T12:10:00.848Z,1060
2022-11-17T12:11:02.112Z,904
2022-11-17T12:12:02.581Z,800
2022-11-17T12:13:03.783Z,836
2022-11-17T12:14:05.938Z,980
2022-11-17T12:15:05.220Z,988
2022-11-17T12:16:06.473Z,952
2022-11-17T12:17:05.827Z,856
2022-11-17T12:18:06.744Z,752
2022-11-17T12:19:07.234Z,704
2022-11-17T12:20:16.106Z,724
2022-11-17T12:21:07.659Z,784
2022-11-17T12:22:08.348Z,816
2022-11-17T12:23:08.049Z,808
2022-11-17T12:24:09.227Z,816
2022-11-17T12:25:09.371Z,872
2022-11-17T12:26:10.371Z,876
2022-11-17T12:27:11.108Z,812
2022-11-17T12:28:11.809Z,668
2022-11-17T12:29:12.318Z,632
2022-11-17T12:30:12.271Z,644
2022-11-17T12:31:20.305Z,624
2022-11-17T12:32:13.932Z,608
2022-11-17T12:33:14.910Z,596
2022-11-17T12:34:16.316Z,624
2022-11-17T12:35:14.991Z,676
2022-11-17T12:36:15.321Z,748
2022-11-17T12:37:16.301Z,780
2022-11-17T12:38:17.578Z,804
2022-11-17T12:39:18.086Z,876
2022-11-17T12:40:17.740Z,924
2022-11-17T12:41:18.357Z,940
2022-11-17T12:42:18.604Z,892
2022-11-17T12:43:19.810Z,792
2022-11-17T12:44:20.769Z,728
2022-11-17T12:45:21.259Z,664
2022-11-17T12:46:21.186Z,576
2022-11-17T12:47:22.411Z,520
2022-11-17T12:48:44.994Z,516
2022-11-17T12:49:24.280Z,520
2022-11-17T12:50:24.486Z,536
2022-11-17T12:51:24.718Z,544
2022-11-17T12:52:25.028Z,612
2022-11-17T12:53:25.529Z,660
2022-11-17T12:54:25.748Z,688
2022-11-17T12:55:26.007Z,672
2022-11-17T12:56:26.514Z,648
2022-11-17T12:57:26.758Z,604
2022-11-17T12:58:27.387Z,608
2022-11-17T12:59:28.833Z,664
2022-11-17T13:00:29.055Z,676
2022-11-17T13:01:30.278Z,632
2022-11-17T13:02:30.700Z,584
2022-11-17T13:03:31.166Z,540
2022-11-17T13:04:31.817Z,524
2022-11-17T13:05:31.831Z,516
2022-11-17T13:06:46.850Z,500
2022-11-17T13:07:33.474Z,488
2022-11-17T13:08:33.912Z,496
2022-11-17T13:09:33.572Z,548
2022-11-17T13:10:35.184Z,632
2022-11-17T13:11:35.172Z,700
2022-11-17T13:12:35.631Z,740
2022-11-17T13:13:38.203Z,768
2022-11-17T13:14:37.980Z,816
2022-11-17T13:15:38.055Z,816
2022-11-17T13:16:39.650Z,744
2022-11-17T13:17:39.560Z,632
2022-11-17T13:18:39.538Z,520
2022-11-17T13:19:40.772Z,444
2022-11-17T13:20:41.090Z,380
2022-11-17T13:21:41.065Z,348
2022-11-17T13:22:47.831Z,344
2022-11-17T13:23:42.325Z,460
2022-11-17T13:24:42.299Z,328
2022-11-17T13:25:42.601Z,368
2022-11-17T13:26:44.001Z,468
2022-11-17T13:27:47.933Z,572
2022-11-17T13:28:44.610Z,612
2022-11-17T13:29:45.538Z,592
2022-11-17T13:30:46.192Z,528
2022-11-17T13:31:47.732Z,456
2022-11-17T13:32:47.904Z,408
2022-11-17T13:33:51.893Z,392
2022-11-17T13:34:49.852Z,408
2022-11-17T13:35:51.092Z,456
2022-11-17T13:36:51.175Z,488
2022-11-17T13:37:51.405Z,516
2022-11-17T13:38:51.336Z,556
2022-11-17T13:39:52.858Z,588
2022-11-17T13:40:53.530Z,592
2022-11-17T13:41:53.629Z,600
2022-11-17T13:42:54.259Z,1000
2022-11-17T13:43:54.451Z,704
2022-11-17T13:44:54.509Z,724
2022-11-17T13:45:55.429Z,724
2022-11-17T13:46:56.364Z,864
2022-11-17T13:47:56.598Z,920
2022-11-17T13:48:57.664Z,892
2022-11-17T13:49:57.167Z,820
2022-11-17T13:50:58.198Z,776
2022-11-17T13:51:59.185Z,720
2022-11-17T13:52:59.030Z,700
2022-11-17T13:53:58.840Z,648
2022-11-17T13:54:59.770Z,604
2022-11-17T13:56:00.033Z,592
2022-11-17T13:57:00.275Z,592
2022-11-17T13:58:00.788Z,624
2022-11-17T13:59:00.714Z,612
2022-11-17T14:00:01.206Z,624
2022-11-17T14:01:02.963Z,652
2022-11-17T14:02:03.299Z,676
2022-11-17T14:03:03.555Z,680
2022-11-17T14:04:03.514Z,680
2022-11-17T14:05:03.844Z,688
2022-11-17T14:06:04.794Z,704
2022-11-17T14:07:06.303Z,696
2022-11-17T14:08:06.614Z,688
2022-11-17T14:09:06.638Z,676
2022-11-17T14:10:12.268Z,664
2022-11-17T14:11:08.375Z,644
2022-11-17T14:12:09.717Z,632
2022-11-17T14:13:09.455Z,632
2022-11-17T14:14:09.836Z,648
2022-11-17T14:15:09.946Z,688
2022-11-17T14:16:10.293Z,708